メインページ
METAR-TAF:

METAR-TAF

空港 :

Vilankulo, モザンビーク

緯度: 22-00S, 経度: 035-19E, 海抜: 20m

現時点の気象観測

当レポートは9時間21分前の16:00(UTC)に作成
気温 23°C
湿度 89%
気圧 1024 hPa
視程10km以上
高度2000ftの雲は散在している

METAR: FQVL 231600Z /////KT 9999 SCT020 23/21 Q1024

時間: 03:21 (01:21 UTC)

予報

当レポートは9時間21分前の16:00(UTC)に作成
予報は23日の 18時(UTC)から 24日の 18時(UTC)まで有効
南/南東の風 10kt
視程10km以上
高度2000ftの雲は散在している
確率 30% :
23日の 18時(UTC)から 23日の 24時(UTC)まで一時的に
視程: 5000m
高度1200ftの雲は散在している
高度1800ftの千切れ雲あり
雨, 霧雨
23日の 21時(UTC)から 23日の 23時(UTC)まで徐々に
南西の風 8kt
24日の 12時(UTC)から 24日の 14時(UTC)まで徐々に
南東の風 12kt、最大22ktの突風を伴う

TAF: FQVL 231600Z 2318/2418 16010KT 9999 SCT020 TX26/2413Z TN17/2402Z PROB30 TEMPO 2318/2324 5000 RADZ SCT012 BKN018 BECMG 2321/2323 22008KT BECMG 2412/2414 13012G22KT

4,000以上の空港の気象観測と天気予報(METAR報とTAF報)

利用可能な観測所は地図上に黄色い丸と赤い丸で示す。

丸の上にカーソルを重ねると観測所名を参照できる。

次にクリックすると気象観測と天気予報を参照できる。

マップの切り替え:黒色「×」印の緑ボタンをクリックして拡大、「-」印の緑ボタンをクリックして縮小、緑色の三角印をクリックして隣りの地図に切り替え


METAR-TAF: